Norfolk, Virginia
Traffic Map
Current Weather Conditions
Norfolk, Virginia
Overcast
Overcast

Feels Like: 2°
Wind Chill: Ceiling: 12000
Heat Index: Visibility: 7mi
Dew Point: Wind: 5mph
Humidity: 93% Direction: ° ()
Pressure: 30.26in Gusts: 0mph
Raw Report DataKORF 021620Z AUTO VRB04KT 7SM SCT003 OVC120 04/03 A3026 RMK AO2 T00390028 TSNO
Traffic Incident Summary
Active as of:
Severity:
Category:
InformationThere was an issue retrieving the traffic information for this location. Please try a different location or try again shortly.
Advertisements
Track Severe Weather on mobile